Orbital elements of FENGYUN 1C DEB
| Launched | 9 May 1999 |
| Flight ended | – |
| Launch site | Taiyuan Space Center, PRC |
| Owner | People's Republic of China |
| NORAD ID | 31561 |
| Date fetched |
Epoch osculation |
Inc. [°] |
Ecc. | RA asc node [hr] |
Arg Peri. [°] |
Mean anom [°] |
Mean motion [rev/day] |
Abs. mag |
| Date fetched |
Epoch osculation |
Inc. [°] |
Ecc. | RA asc node [hr] |
Arg Peri. [°] |
Mean anom [°] |
Mean motion [rev/day] |
Abs. mag |
| 2026 May 05 17:57 | 2026 May 05 10:34:03 | 98.7253 | 0.00570 | 8.0309 | 140.3747 | 15.9898 | 14.02972 | – |
| 2026 May 04 17:57 | 2026 Apr 30 10:44:49 | 98.7246 | 0.00569 | 7.7118 | 154.2348 | 15.9898 | 14.02972 | – |
| 2026 May 03 17:57 | 2026 Apr 30 10:44:49 | 98.7246 | 0.00569 | 7.7118 | 154.2348 | 15.9898 | 14.02972 | – |
| 2026 May 02 17:57 | 2026 Apr 30 10:44:49 | 98.7246 | 0.00569 | 7.7118 | 154.2348 | 15.9898 | 14.02972 | – |
| 2026 May 01 17:56 | 2026 Apr 30 10:44:49 | 98.7246 | 0.00569 | 7.7118 | 154.2348 | 15.9898 | 14.02972 | – |
| 2026 Apr 30 17:56 | 2026 Apr 30 10:44:49 | 98.7246 | 0.00569 | 7.7118 | 154.2348 | 15.9898 | 14.02972 | – |
| 2026 Apr 29 17:57 | 2026 Apr 22 18:00:52 | 98.7243 | 0.00564 | 7.2198 | 175.5061 | 15.9898 | 14.02972 | – |
| 2026 Apr 28 17:56 | 2026 Apr 22 18:00:52 | 98.7243 | 0.00564 | 7.2198 | 175.5061 | 15.9898 | 14.02972 | – |
| 2026 Apr 27 17:58 | 2026 Apr 22 18:00:52 | 98.7243 | 0.00564 | 7.2198 | 175.5061 | 15.9898 | 14.02972 | – |
| 2026 Apr 26 17:58 | 2026 Apr 22 18:00:52 | 98.7243 | 0.00564 | 7.2198 | 175.5061 | 15.9898 | 14.02972 | – |
| 2026 Apr 25 17:58 | 2026 Apr 22 18:00:52 | 98.7243 | 0.00564 | 7.2198 | 175.5061 | 15.9898 | 14.02972 | – |
| 2026 Apr 24 17:59 | 2026 Apr 22 18:00:52 | 98.7243 | 0.00564 | 7.2198 | 175.5061 | 15.9898 | 14.02972 | – |
| 2026 Apr 23 17:57 | 2026 Apr 19 05:21:49 | 98.7246 | 0.00561 | 6.9944 | 185.2951 | 15.9898 | 14.02972 | – |
| 2026 Apr 22 17:57 | 2026 Apr 19 05:21:49 | 98.7246 | 0.00561 | 6.9944 | 185.2951 | 15.9898 | 14.02972 | – |
| 2026 Apr 21 17:57 | 2026 Apr 19 05:21:49 | 98.7246 | 0.00561 | 6.9944 | 185.2951 | 15.9898 | 14.02972 | – |
| 2026 Apr 20 17:57 | 2026 Apr 19 05:21:49 | 98.7246 | 0.00561 | 6.9944 | 185.2951 | 15.9898 | 14.02972 | – |
| 2026 Apr 19 17:58 | 2026 Apr 19 05:21:49 | 98.7246 | 0.00561 | 6.9944 | 185.2951 | 15.9898 | 14.02972 | – |
| 2026 Apr 18 17:56 | 2026 Apr 12 13:00:25 | 98.7248 | 0.00555 | 6.5673 | 204.1977 | 15.9898 | 14.02972 | – |
| 2026 Apr 16 17:57 | 2026 Apr 12 13:00:25 | 98.7248 | 0.00555 | 6.5673 | 204.1977 | 15.9898 | 14.02972 | – |
| 2026 Apr 14 17:57 | 2026 Apr 12 13:00:25 | 98.7248 | 0.00555 | 6.5673 | 204.1977 | 15.9898 | 14.02972 | – |
| 2026 Apr 13 17:57 | 2026 Apr 12 13:00:25 | 98.7248 | 0.00555 | 6.5673 | 204.1977 | 15.9898 | 14.02972 | – |
| 2026 Apr 12 17:57 | 2026 Apr 08 11:33:42 | 98.7246 | 0.00552 | 6.3078 | 215.6685 | 15.9898 | 14.02972 | – |
| 2026 Apr 11 17:57 | 2026 Apr 08 11:33:42 | 98.7246 | 0.00552 | 6.3078 | 215.6685 | 15.9898 | 14.02972 | – |
| 2026 Apr 10 17:58 | 2026 Apr 08 11:33:42 | 98.7246 | 0.00552 | 6.3078 | 215.6685 | 15.9898 | 14.02972 | – |
| 2026 Apr 09 18:01 | 2026 Apr 08 11:33:42 | 98.7246 | 0.00552 | 6.3078 | 215.6685 | 15.9898 | 14.02972 | – |
| 2026 Apr 08 17:57 | 2026 Apr 08 11:33:42 | 98.7246 | 0.00552 | 6.3078 | 215.6685 | 15.9898 | 14.02972 | – |